createdAt,value
2019-01-31T00:02:32.018Z,9.97
2019-01-31T00:05:17.841Z,10.47
2019-01-31T00:07:59.214Z,11.37
2019-01-31T00:10:38.059Z,12.47
2019-01-31T00:13:14.946Z,12.58
2019-01-31T00:16:14.217Z,11.85
2019-01-31T00:19:11.405Z,13.57
2019-01-31T00:22:11.723Z,13.40
2019-01-31T00:24:56.598Z,14.20
2019-01-31T00:27:49.014Z,14.87
2019-01-31T00:30:29.569Z,14.38
2019-01-31T00:33:26.528Z,15.53
2019-01-31T00:36:11.414Z,17.80
2019-01-31T00:38:56.835Z,17.27
2019-01-31T00:41:39.539Z,16.30
2019-01-31T00:44:31.647Z,16.83
2019-01-31T00:47:32.448Z,16.87
2019-01-31T00:50:35.185Z,17.43
2019-01-31T00:53:28.494Z,17.70
2019-01-31T00:56:13.330Z,19.10
2019-01-31T00:59:21.331Z,17.73
2019-01-31T01:02:09.512Z,20.83
2019-01-31T01:04:52.447Z,20.90
2019-01-31T01:07:38.244Z,19.30
2019-01-31T01:10:29.409Z,23.40
2019-01-31T01:13:12.050Z,21.90
2019-01-31T01:16:12.962Z,20.47
2019-01-31T01:19:06.252Z,20.63
2019-01-31T01:21:58.664Z,20.37
2019-01-31T01:24:44.724Z,20.93
2019-01-31T01:27:39.809Z,20.57
2019-01-31T01:30:27.912Z,21.52
2019-01-31T01:33:22.885Z,22.77
2019-01-31T01:36:04.495Z,22.23
2019-01-31T01:39:19.389Z,23.15
2019-01-31T01:42:11.840Z,23.43
2019-01-31T01:44:56.735Z,23.53
2019-01-31T01:47:44.475Z,20.47
2019-01-31T01:50:32.397Z,15.67
2019-01-31T01:53:16.983Z,15.23
2019-01-31T01:55:58.066Z,12.33
2019-01-31T01:58:36.727Z,12.50
2019-01-31T02:01:15.752Z,13.60
2019-01-31T02:04:06.359Z,13.70
2019-01-31T02:06:52.184Z,12.57
2019-01-31T02:10:01.016Z,12.50
2019-01-31T02:12:41.202Z,12.27
2019-01-31T02:15:44.977Z,11.43
2019-01-31T02:18:27.877Z,10.60
2019-01-31T02:21:09.729Z,10.87
2019-01-31T02:24:04.490Z,11.53
2019-01-31T02:26:52.519Z,10.50
2019-01-31T02:29:46.729Z,10.57
2019-01-31T02:32:30.572Z,9.67
2019-01-31T02:35:15.549Z,10.07
2019-01-31T02:38:12.054Z,9.93
2019-01-31T02:40:56.719Z,9.57
2019-01-31T02:43:42.047Z,8.73
2019-01-31T02:46:38.914Z,9.40
2019-01-31T02:49:38.448Z,10.85
2019-01-31T02:52:29.485Z,9.67
2019-01-31T02:55:26.850Z,7.10
2019-01-31T02:58:11.577Z,10.10
2019-01-31T03:01:11.756Z,11.20
2019-01-31T03:03:59.818Z,10.30
2019-01-31T03:07:03.853Z,10.27
2019-01-31T03:09:55.006Z,8.03
2019-01-31T03:12:49.938Z,9.70
2019-01-31T03:15:28.963Z,9.63
2019-01-31T03:18:19.810Z,12.07
2019-01-31T03:21:06.655Z,12.90
2019-01-31T03:24:00.020Z,9.30
2019-01-31T03:27:10.252Z,9.20
2019-01-31T03:30:03.871Z,10.45
2019-01-31T03:33:08.041Z,10.53
2019-01-31T03:35:52.873Z,9.83
2019-01-31T03:38:31.637Z,10.43
2019-01-31T03:41:22.881Z,13.60
2019-01-31T03:44:17.412Z,12.90
2019-01-31T03:46:58.836Z,10.55
2019-01-31T03:49:49.719Z,13.07
2019-01-31T03:52:28.826Z,13.67
2019-01-31T03:55:31.809Z,12.88
2019-01-31T03:58:45.466Z,13.40
2019-01-31T04:01:33.293Z,14.40
2019-01-31T04:04:27.541Z,13.43
2019-01-31T04:07:00.821Z,12.10
2019-01-31T04:09:35.267Z,14.28
2019-01-31T04:12:08.545Z,15.37
2019-01-31T04:14:41.752Z,14.38
2019-01-31T04:17:14.857Z,19.83
2019-01-31T04:19:47.728Z,15.40
2019-01-31T04:22:21.034Z,17.40
2019-01-31T04:24:54.277Z,21.13
2019-01-31T04:27:28.695Z,15.87
2019-01-31T04:30:02.735Z,15.60
2019-01-31T04:32:36.083Z,17.07
2019-01-31T04:35:09.694Z,15.18
2019-01-31T04:37:43.911Z,15.13
2019-01-31T04:40:30.236Z,14.50
2019-01-31T04:42:52.939Z,13.78
2019-01-31T04:45:25.988Z,13.25
2019-01-31T04:47:59.729Z,11.83
2019-01-31T04:50:32.825Z,11.80
2019-01-31T04:53:06.174Z,11.25
2019-01-31T04:55:39.217Z,11.73
2019-01-31T04:58:13.147Z,11.83
2019-01-31T05:00:46.333Z,11.80
2019-01-31T05:03:20.170Z,12.00
2019-01-31T05:05:53.209Z,13.07
2019-01-31T05:08:26.340Z,12.03
2019-01-31T05:10:59.762Z,11.20
2019-01-31T05:13:33.279Z,11.73
2019-01-31T05:16:06.557Z,17.53
2019-01-31T05:18:40.901Z,10.23
2019-01-31T05:21:15.362Z,9.47
2019-01-31T05:23:48.520Z,12.93
2019-01-31T05:26:21.445Z,12.28
2019-01-31T05:28:54.762Z,14.25
2019-01-31T05:31:27.690Z,10.10
2019-01-31T05:34:00.595Z,10.07
2019-01-31T05:36:53.350Z,9.50
2019-01-31T05:39:26.867Z,11.73
2019-01-31T05:42:00.045Z,11.97
2019-01-31T05:44:33.242Z,15.40
2019-01-31T05:47:06.770Z,13.07
2019-01-31T05:49:40.242Z,18.45
2019-01-31T05:52:19.476Z,13.40
2019-01-31T05:54:55.831Z,12.10
2019-01-31T05:57:30.704Z,17.20
2019-01-31T06:00:05.571Z,15.60
2019-01-31T06:02:58.506Z,14.80
2019-01-31T06:05:32.164Z,14.07
2019-01-31T06:08:08.148Z,14.87
2019-01-31T06:10:42.777Z,15.57
2019-01-31T06:13:16.270Z,17.62
2019-01-31T06:15:49.847Z,15.17
2019-01-31T06:18:23.569Z,16.90
2019-01-31T06:20:57.443Z,16.47
2019-01-31T06:23:31.490Z,15.07
2019-01-31T06:26:05.941Z,15.47
2019-01-31T06:28:42.342Z,16.57
2019-01-31T06:31:15.776Z,17.73
2019-01-31T06:33:49.022Z,18.27
2019-01-31T06:36:23.754Z,17.37
2019-01-31T06:38:59.603Z,17.23
2019-01-31T06:41:33.145Z,17.97
2019-01-31T06:44:06.451Z,16.97
2019-01-31T06:46:41.157Z,17.63
2019-01-31T06:49:14.825Z,18.85
2019-01-31T06:51:48.379Z,18.47
2019-01-31T06:54:21.491Z,18.53
2019-01-31T06:56:54.661Z,16.57
2019-01-31T06:59:27.991Z,17.70
2019-01-31T07:02:01.510Z,17.87
2019-01-31T07:04:34.936Z,18.23
2019-01-31T07:07:08.528Z,17.20
2019-01-31T07:09:41.931Z,16.60
2019-01-31T07:12:15.480Z,14.20
2019-01-31T07:14:48.685Z,14.53
2019-01-31T07:17:22.451Z,17.40
2019-01-31T07:19:56.616Z,13.90
2019-01-31T07:22:30.376Z,13.87
2019-01-31T07:25:03.886Z,13.80
2019-01-31T07:27:37.467Z,12.07
2019-01-31T07:30:16.312Z,12.18
2019-01-31T07:32:49.596Z,16.02
2019-01-31T07:35:23.117Z,17.07
2019-01-31T07:37:56.790Z,17.77
2019-01-31T07:40:42.642Z,16.97
2019-01-31T07:43:16.195Z,16.27
2019-01-31T07:45:50.530Z,15.63
2019-01-31T07:48:23.956Z,15.72
2019-01-31T07:50:57.214Z,15.27
2019-01-31T07:53:30.575Z,16.87
2019-01-31T07:56:04.264Z,14.90
2019-01-31T07:58:37.258Z,14.57
2019-01-31T08:01:11.270Z,14.40
2019-01-31T08:03:45.932Z,15.03
2019-01-31T08:06:19.278Z,15.20
2019-01-31T08:08:52.723Z,16.37
2019-01-31T08:11:26.810Z,17.47
2019-01-31T08:14:00.248Z,14.47
2019-01-31T08:16:34.942Z,12.57
2019-01-31T08:19:10.600Z,11.50
2019-01-31T08:21:45.436Z,11.37
2019-01-31T08:24:20.980Z,11.77
2019-01-31T08:26:57.433Z,10.53
2019-01-31T08:29:30.757Z,12.17
2019-01-31T08:32:04.092Z,11.80
2019-01-31T08:34:38.643Z,11.03
2019-01-31T08:37:12.388Z,11.00
2019-01-31T08:39:45.945Z,11.03
2019-01-31T08:42:19.453Z,11.77
2019-01-31T08:44:53.160Z,11.08
2019-01-31T08:47:27.124Z,11.18
2019-01-31T08:50:00.700Z,10.47
2019-01-31T08:52:34.716Z,8.70
2019-01-31T08:55:09.241Z,7.93
2019-01-31T08:57:42.697Z,8.03
2019-01-31T09:00:27.793Z,8.10
2019-01-31T09:03:01.743Z,8.27
2019-01-31T09:08:35.802Z,10.30
2019-01-31T09:11:10.246Z,9.60
2019-01-31T09:13:44.877Z,10.33
2019-01-31T09:16:18.681Z,11.77
2019-01-31T09:18:53.673Z,12.45
2019-01-31T09:21:34.222Z,10.53
2019-01-31T09:24:12.219Z,12.20
2019-01-31T09:27:07.897Z,13.93
2019-01-31T09:29:57.598Z,13.37
2019-01-31T09:32:55.820Z,13.72
2019-01-31T09:35:46.884Z,15.47
2019-01-31T09:38:35.980Z,16.77
2019-01-31T09:41:45.517Z,15.80
2019-01-31T09:44:33.283Z,14.60
2019-01-31T09:47:40.050Z,16.37
2019-01-31T09:50:18.913Z,16.20
2019-01-31T09:53:15.471Z,17.40
2019-01-31T09:56:05.584Z,17.30
2019-01-31T09:59:07.014Z,18.23
2019-01-31T10:02:09.628Z,17.93
2019-01-31T10:04:56.932Z,18.23
2019-01-31T10:07:52.832Z,17.80
2019-01-31T10:10:34.528Z,17.63
2019-01-31T10:13:54.752Z,17.50
2019-01-31T10:16:46.919Z,16.97
2019-01-31T10:19:45.097Z,16.90
2019-01-31T10:22:35.900Z,17.77
2019-01-31T10:25:27.318Z,18.07
2019-01-31T10:28:18.911Z,18.33
2019-01-31T10:31:00.488Z,18.93
2019-01-31T10:33:47.910Z,18.73
2019-01-31T10:36:44.226Z,19.57
2019-01-31T10:39:31.689Z,20.27
2019-01-31T10:42:11.104Z,19.03
2019-01-31T10:45:01.749Z,19.77
2019-01-31T10:47:58.930Z,19.03
2019-01-31T10:50:52.840Z,18.30
2019-01-31T10:53:37.601Z,18.30
2019-01-31T10:56:49.456Z,18.57
2019-01-31T10:59:47.943Z,18.90
2019-01-31T11:02:44.608Z,19.92
2019-01-31T11:05:26.519Z,20.93
2019-01-31T11:08:14.536Z,21.13
2019-01-31T11:11:14.817Z,20.93
2019-01-31T11:14:13.430Z,19.80
2019-01-31T11:17:12.030Z,20.20
2019-01-31T11:19:58.875Z,20.07
2019-01-31T11:22:46.943Z,19.30
2019-01-31T11:25:31.586Z,19.15
2019-01-31T11:28:26.501Z,19.93
2019-01-31T11:31:34.415Z,19.40
2019-01-31T11:34:11.015Z,19.40
2019-01-31T11:36:54.289Z,19.47
2019-01-31T11:39:48.790Z,17.67
2019-01-31T11:42:27.540Z,18.33
2019-01-31T11:45:22.878Z,18.60
2019-01-31T11:47:59.659Z,18.33
2019-01-31T11:50:46.697Z,18.97
2019-01-31T11:53:37.916Z,18.47
2019-01-31T11:56:35.970Z,19.80
2019-01-31T11:59:11.211Z,20.08
2019-01-31T12:01:46.373Z,21.00
2019-01-31T12:04:20.862Z,21.10
2019-01-31T12:06:55.316Z,22.60
2019-01-31T12:09:29.830Z,22.87
2019-01-31T12:12:15.045Z,23.10
2019-01-31T12:14:50.766Z,22.38
2019-01-31T12:17:26.937Z,23.10
2019-01-31T12:20:05.716Z,22.53
2019-01-31T12:23:01.417Z,24.30
2019-01-31T12:25:38.930Z,24.25
2019-01-31T12:28:14.143Z,25.83
2019-01-31T12:30:50.559Z,27.30
2019-01-31T12:33:26.433Z,29.72
2019-01-31T12:36:04.722Z,30.70
2019-01-31T12:38:40.793Z,33.45
2019-01-31T12:41:16.233Z,35.55
2019-01-31T12:43:52.460Z,37.17
2019-01-31T12:46:32.596Z,39.80
2019-01-31T12:49:08.301Z,39.07
2019-01-31T12:51:43.528Z,39.67
2019-01-31T12:57:14.916Z,35.70
2019-01-31T12:59:50.652Z,33.97
2019-01-31T13:02:28.518Z,34.17
2019-01-31T13:05:06.011Z,30.43
2019-01-31T13:07:44.014Z,32.28
2019-01-31T13:10:19.555Z,31.40
2019-01-31T13:12:55.432Z,30.37
2019-01-31T13:15:36.055Z,29.37
2019-01-31T13:18:20.711Z,28.77
2019-01-31T13:20:57.962Z,26.23
2019-01-31T13:23:32.841Z,25.63
2019-01-31T13:26:09.911Z,24.70
2019-01-31T13:28:46.270Z,25.63
2019-01-31T13:31:21.237Z,24.17
2019-01-31T13:33:56.275Z,24.47
2019-01-31T13:36:32.705Z,27.53
2019-01-31T13:39:10.411Z,26.23
2019-01-31T13:41:48.304Z,24.67
2019-01-31T13:44:25.450Z,25.00
2019-01-31T13:47:01.979Z,24.67
2019-01-31T13:49:41.688Z,24.73
2019-01-31T13:52:21.158Z,24.30
2019-01-31T13:55:18.800Z,25.20
2019-01-31T13:58:11.578Z,24.37
2019-01-31T14:00:47.974Z,23.95
2019-01-31T14:03:24.689Z,23.70
2019-01-31T14:06:00.013Z,25.00
2019-01-31T14:08:38.225Z,23.67
2019-01-31T14:11:13.473Z,22.90
2019-01-31T14:13:49.773Z,22.93
2019-01-31T14:16:24.707Z,23.13
2019-01-31T14:19:01.386Z,21.37
2019-01-31T14:21:40.110Z,21.27
2019-01-31T14:24:19.234Z,21.57
2019-01-31T14:26:55.771Z,20.90
2019-01-31T14:29:30.660Z,21.30
2019-01-31T14:32:05.583Z,21.17
2019-01-31T14:34:40.912Z,22.97
2019-01-31T14:37:18.621Z,24.47
2019-01-31T14:39:52.796Z,29.70
2019-01-31T14:42:27.806Z,27.60
2019-01-31T14:45:03.607Z,36.30
2019-01-31T14:47:38.464Z,52.37
2019-01-31T14:50:23.108Z,51.80
2019-01-31T14:52:59.647Z,51.93
2019-01-31T14:55:36.728Z,53.58
2019-01-31T14:58:15.494Z,63.98
2019-01-31T15:00:52.356Z,57.70
2019-01-31T15:03:29.776Z,54.80
2019-01-31T15:06:08.783Z,56.67
2019-01-31T15:08:45.228Z,59.63
2019-01-31T15:11:20.510Z,77.03
2019-01-31T15:13:57.916Z,87.77
2019-01-31T15:16:33.442Z,114.62
2019-01-31T15:19:09.257Z,123.63
2019-01-31T15:21:44.342Z,129.97
2019-01-31T15:24:20.059Z,130.63
2019-01-31T15:26:58.343Z,130.47
2019-01-31T15:29:32.229Z,130.10
2019-01-31T15:32:11.390Z,131.43
2019-01-31T15:34:47.275Z,115.97
2019-01-31T15:37:22.899Z,114.00
2019-01-31T15:40:07.804Z,98.20
2019-01-31T15:42:48.997Z,102.47
2019-01-31T15:45:28.138Z,125.30
2019-01-31T15:48:05.097Z,132.70
2019-01-31T15:50:44.531Z,123.97
2019-01-31T15:53:22.712Z,130.73
2019-01-31T15:56:02.714Z,105.85
2019-01-31T15:58:41.618Z,98.92
2019-01-31T16:01:24.344Z,80.73
2019-01-31T16:04:00.855Z,77.33
2019-01-31T16:06:36.531Z,72.03
2019-01-31T16:09:12.594Z,64.40
2019-01-31T16:11:50.106Z,63.47
2019-01-31T16:14:24.974Z,56.60
2019-01-31T16:17:00.486Z,50.37
2019-01-31T16:19:42.177Z,45.55
2019-01-31T16:22:22.848Z,42.03
2019-01-31T16:24:57.571Z,38.13
2019-01-31T16:27:34.637Z,36.55
2019-01-31T16:30:23.071Z,35.23
2019-01-31T16:32:59.336Z,32.43
2019-01-31T16:35:34.201Z,34.10
2019-01-31T16:38:10.455Z,38.07
2019-01-31T16:40:46.387Z,49.67
2019-01-31T16:43:23.159Z,53.93
2019-01-31T16:46:01.017Z,54.67
2019-01-31T16:48:35.460Z,61.30
2019-01-31T16:51:12.708Z,65.50
2019-01-31T16:53:49.996Z,76.17
2019-01-31T16:56:30.256Z,83.82
2019-01-31T16:59:05.484Z,85.27
2019-01-31T17:01:40.696Z,82.00
2019-01-31T17:04:19.252Z,86.20
2019-01-31T17:06:55.494Z,85.60
2019-01-31T17:09:34.137Z,85.07
2019-01-31T17:12:10.411Z,86.07
2019-01-31T17:14:45.232Z,91.10
2019-01-31T17:17:21.068Z,92.07
2019-01-31T17:19:55.632Z,97.77
2019-01-31T17:22:35.667Z,100.90
2019-01-31T17:25:12.655Z,99.77
2019-01-31T17:27:47.215Z,99.70
2019-01-31T17:30:24.319Z,96.00
2019-01-31T17:33:00.224Z,93.47
2019-01-31T17:35:32.805Z,92.93
2019-01-31T17:38:08.609Z,94.80
2019-01-31T17:40:44.358Z,87.27
2019-01-31T17:43:18.482Z,88.50
2019-01-31T17:45:57.298Z,84.30
2019-01-31T17:48:31.478Z,80.43
2019-01-31T17:51:05.923Z,80.90
2019-01-31T17:53:40.096Z,79.47
2019-01-31T17:56:13.590Z,80.10
2019-01-31T17:58:47.397Z,77.57
2019-01-31T18:01:21.809Z,70.85
2019-01-31T18:03:55.649Z,71.17
2019-01-31T18:06:29.936Z,76.53
2019-01-31T18:09:03.567Z,68.00
2019-01-31T18:11:38.109Z,65.44
2019-01-31T18:14:11.988Z,63.57
2019-01-31T18:16:46.112Z,61.30
2019-01-31T18:19:20.066Z,59.57
2019-01-31T18:21:53.576Z,59.83
2019-01-31T18:24:27.311Z,56.80
2019-01-31T18:27:00.653Z,54.57
2019-01-31T18:29:34.479Z,47.48
2019-01-31T18:32:08.236Z,51.70
2019-01-31T18:34:42.485Z,49.47
2019-01-31T18:37:16.114Z,46.00
2019-01-31T18:39:49.942Z,47.17
2019-01-31T18:42:23.179Z,43.80
2019-01-31T18:44:56.803Z,41.00
2019-01-31T18:47:32.732Z,40.83
2019-01-31T18:50:06.767Z,40.50
2019-01-31T18:52:40.241Z,38.38
2019-01-31T18:55:15.399Z,37.33
2019-01-31T18:57:51.263Z,33.67
2019-01-31T19:00:31.109Z,32.47
2019-01-31T19:03:04.858Z,31.20
2019-01-31T19:05:38.927Z,31.57
2019-01-31T19:08:12.636Z,30.75
2019-01-31T19:10:46.078Z,29.53
2019-01-31T19:13:19.821Z,28.17
2019-01-31T19:16:04.334Z,28.20
2019-01-31T19:18:27.991Z,26.43
2019-01-31T19:21:01.337Z,27.20
2019-01-31T19:23:35.399Z,25.43
2019-01-31T19:26:10.567Z,25.30
2019-01-31T19:28:44.181Z,25.60
2019-01-31T19:31:17.398Z,23.98
2019-01-31T19:33:51.769Z,25.50
2019-01-31T19:36:25.507Z,23.92
2019-01-31T19:39:00.984Z,23.27
2019-01-31T19:41:34.438Z,23.73
2019-01-31T19:44:08.581Z,21.90
2019-01-31T19:46:41.886Z,23.60
2019-01-31T19:49:14.798Z,23.30
2019-01-31T19:51:48.300Z,24.35
2019-01-31T19:57:50.225Z,23.77
2019-01-31T20:00:28.954Z,24.25
2019-01-31T20:03:02.054Z,25.03
2019-01-31T20:05:35.403Z,24.93
2019-01-31T20:08:09.189Z,23.73
2019-01-31T20:10:42.599Z,25.97
2019-01-31T20:13:15.780Z,24.53
2019-01-31T20:15:49.281Z,25.35
2019-01-31T20:18:22.598Z,24.95
2019-01-31T20:20:55.925Z,25.82
2019-01-31T20:23:29.379Z,26.10
2019-01-31T20:26:02.768Z,25.97
2019-01-31T20:28:36.900Z,25.63
2019-01-31T20:31:10.070Z,26.00
2019-01-31T20:33:43.270Z,27.00
2019-01-31T20:36:18.227Z,26.97
2019-01-31T20:38:51.591Z,26.23
2019-01-31T20:41:27.380Z,25.83
2019-01-31T20:43:59.894Z,25.20
2019-01-31T20:46:39.701Z,24.57
2019-01-31T20:49:08.433Z,25.33
2019-01-31T20:51:41.645Z,26.63
2019-01-31T20:54:14.364Z,26.23
2019-01-31T20:56:47.619Z,25.75
2019-01-31T20:59:20.830Z,25.50
2019-01-31T21:01:54.177Z,25.67
2019-01-31T21:04:27.656Z,25.40
2019-01-31T21:07:01.050Z,25.83
2019-01-31T21:09:35.729Z,24.73
2019-01-31T21:12:09.101Z,24.33
2019-01-31T21:14:42.960Z,24.33
2019-01-31T21:17:16.402Z,24.20
2019-01-31T21:19:49.640Z,24.23
2019-01-31T21:22:23.021Z,24.47
2019-01-31T21:24:56.553Z,24.40
2019-01-31T21:27:31.076Z,26.33
2019-01-31T21:30:05.702Z,25.77
2019-01-31T21:32:39.102Z,24.53
2019-01-31T21:35:13.439Z,26.25
2019-01-31T21:37:47.600Z,26.27
2019-01-31T21:40:25.607Z,23.37
2019-01-31T21:42:58.834Z,23.90
2019-01-31T21:45:32.059Z,23.70
2019-01-31T21:48:06.229Z,23.17
2019-01-31T21:50:39.787Z,24.70
2019-01-31T21:53:13.436Z,23.87
2019-01-31T21:55:47.093Z,24.40
2019-01-31T21:58:20.420Z,23.77
2019-01-31T22:00:53.872Z,22.90
2019-01-31T22:03:27.469Z,23.03
2019-01-31T22:06:01.777Z,24.30
2019-01-31T22:08:34.959Z,22.90
2019-01-31T22:11:08.349Z,22.80
2019-01-31T22:16:36.962Z,23.43
2019-01-31T22:19:10.448Z,24.73
2019-01-31T22:21:44.449Z,23.40
2019-01-31T22:24:37.336Z,23.70
2019-01-31T22:27:12.514Z,22.90
2019-01-31T22:29:45.895Z,23.07
2019-01-31T22:32:19.668Z,21.83
2019-01-31T22:34:52.741Z,23.37
2019-01-31T22:37:26.552Z,24.10
2019-01-31T22:39:59.907Z,22.37
2019-01-31T22:42:33.449Z,22.80
2019-01-31T22:45:10.073Z,22.80
2019-01-31T22:47:43.370Z,23.10
2019-01-31T22:50:24.834Z,23.17
2019-01-31T22:52:58.187Z,23.03
2019-01-31T22:55:32.680Z,22.40
2019-01-31T22:58:06.240Z,23.23
2019-01-31T23:00:44.994Z,23.10
2019-01-31T23:03:18.228Z,23.13
2019-01-31T23:05:54.868Z,21.87
2019-01-31T23:08:29.570Z,24.07
2019-01-31T23:11:03.136Z,23.40
2019-01-31T23:13:36.379Z,23.57
2019-01-31T23:16:09.871Z,23.93
2019-01-31T23:18:43.356Z,23.60
2019-01-31T23:21:17.032Z,24.30
2019-01-31T23:23:50.487Z,24.80
2019-01-31T23:26:24.049Z,23.57
2019-01-31T23:28:57.670Z,24.13
2019-01-31T23:31:31.467Z,25.10
2019-01-31T23:34:05.762Z,25.10
2019-01-31T23:36:39.195Z,25.07
2019-01-31T23:39:12.917Z,25.47
2019-01-31T23:41:47.068Z,24.98
2019-01-31T23:44:20.376Z,25.17
2019-01-31T23:47:12.989Z,24.27
2019-01-31T23:49:48.260Z,25.10
2019-01-31T23:52:21.863Z,25.30
2019-01-31T23:54:56.395Z,24.12
2019-01-31T23:57:30.297Z,24.90
